Hauptseite
METAR-TAF:

METAR-TAF

Flughäfen :

Fliegerhorst Ingolstadt/Manching

Ingolstadt, Deutschland

Breite: 48-43N, Länge: 011-32E, Höhe: 367 m

Beobachtung

Neuester Wetterbericht von vor 49 Minuten, um 16:20 UTC
Wind 3 kt aus Ost/Nordost
Temperatur 18°C
Luftfeuchtigkeit 56%
Luftdruck 1018 hPa
Sichtweite 10 km oder mehr
Leicht bewölkt in der Höhe von 26000 ft

METAR: ETSI 171620Z 06003KT 9999 FEW260 18/09 Q1018 BLU+

Zeit: 19:09 (17:09 UTC)

Prognose

Neuester Wetterbericht von vor 3 Stunden und 58 Minuten, um 13:11 UTC
Gültige Prognose vom 17 um 14 UTC bis 17 um 23 UTC
Wind 2 kt aus Ost/Nordost
Sichtweite: 1420 m
Leicht bewölkt in der Höhe von 13000 ft

TAF: ETSI 171311Z 1714/1723 07002KT 9999 NSW FEW130 CANCEL 1420

Wetterbeobachtungen und Prognosen von mehr als 4000 Flughäfen (METAR und TAF Bericht).

Die verfügbaren Stationen werden durch gelbe und rote Markierungen auf der Karte dargestellt.

Führen Sie die Maus auf sie, um den Namen der Station zu sehen.

Darauf klicken, um die Beobachtung von Wetterbeobachtungen und Prognosen zu sehen.

Um die Karte zu ändern : klicken Sie auf den grünen Tasten mit einem schwarzen Kreuz Zum Vergrößern, auf den grünen Button mit einem Gedankenstrich zu verkleinern, oder auf die grünen Pfeile für benachbarte Karten.


METAR-TAF: